sensor_id;sensor_type;location;lat;lon;timestamp;P1;durP1;ratioP1;P2;durP2;ratioP2
18596;SDS011;9428;50.950;6.912;2024-01-30T00:01:01;16.90;;;9.88;;
18596;SDS011;9428;50.950;6.912;2024-01-30T00:03:49;14.77;;;8.97;;
18596;SDS011;9428;50.950;6.912;2024-01-30T00:06:37;17.58;;;8.82;;
18596;SDS011;9428;50.950;6.912;2024-01-30T00:09:24;14.05;;;8.77;;
18596;SDS011;9428;50.950;6.912;2024-01-30T00:12:11;18.70;;;9.50;;
18596;SDS011;9428;50.950;6.912;2024-01-30T00:14:59;15.52;;;8.50;;
18596;SDS011;9428;50.950;6.912;2024-01-30T00:17:48;13.73;;;8.57;;
18596;SDS011;9428;50.950;6.912;2024-01-30T00:20:40;13.30;;;8.55;;
18596;SDS011;9428;50.950;6.912;2024-01-30T00:23:28;15.18;;;8.65;;
18596;SDS011;9428;50.950;6.912;2024-01-30T00:26:20;15.43;;;8.73;;
18596;SDS011;9428;50.950;6.912;2024-01-30T00:29:14;12.00;;;8.60;;
18596;SDS011;9428;50.950;6.912;2024-01-30T00:32:05;14.60;;;8.63;;
18596;SDS011;9428;50.950;6.912;2024-01-30T00:34:54;10.83;;;8.10;;
18596;SDS011;9428;50.950;6.912;2024-01-30T00:37:41;15.43;;;8.77;;
18596;SDS011;9428;50.950;6.912;2024-01-30T00:40:31;12.23;;;8.20;;
18596;SDS011;9428;50.950;6.912;2024-01-30T00:43:19;15.90;;;8.43;;
18596;SDS011;9428;50.950;6.912;2024-01-30T00:46:09;12.55;;;8.88;;
18596;SDS011;9428;50.950;6.912;2024-01-30T00:48:56;14.45;;;9.30;;
18596;SDS011;9428;50.950;6.912;2024-01-30T00:51:46;14.68;;;8.48;;
18596;SDS011;9428;50.950;6.912;2024-01-30T00:54:33;14.03;;;9.03;;
18596;SDS011;9428;50.950;6.912;2024-01-30T00:57:20;13.73;;;9.03;;
18596;SDS011;9428;50.950;6.912;2024-01-30T01:00:08;14.48;;;8.98;;
18596;SDS011;9428;50.950;6.912;2024-01-30T01:02:56;13.45;;;8.73;;
18596;SDS011;9428;50.950;6.912;2024-01-30T01:05:44;13.70;;;8.37;;
18596;SDS011;9428;50.950;6.912;2024-01-30T01:08:33;13.57;;;8.97;;
18596;SDS011;9428;50.950;6.912;2024-01-30T01:11:20;14.05;;;8.77;;
18596;SDS011;9428;50.950;6.912;2024-01-30T01:14:08;16.33;;;8.18;;
18596;SDS011;9428;50.950;6.912;2024-01-30T01:16:55;11.50;;;8.10;;
18596;SDS011;9428;50.950;6.912;2024-01-30T01:19:43;13.55;;;8.60;;
18596;SDS011;9428;50.950;6.912;2024-01-30T01:22:30;13.02;;;8.80;;
18596;SDS011;9428;50.950;6.912;2024-01-30T01:25:19;13.55;;;7.88;;
18596;SDS011;9428;50.950;6.912;2024-01-30T01:28:07;13.95;;;8.45;;
18596;SDS011;9428;50.950;6.912;2024-01-30T01:30:54;11.95;;;8.30;;
18596;SDS011;9428;50.950;6.912;2024-01-30T01:33:44;12.60;;;7.90;;
18596;SDS011;9428;50.950;6.912;2024-01-30T01:36:32;19.93;;;8.67;;
18596;SDS011;9428;50.950;6.912;2024-01-30T01:39:19;14.88;;;8.38;;
18596;SDS011;9428;50.950;6.912;2024-01-30T01:42:11;11.32;;;8.40;;
18596;SDS011;9428;50.950;6.912;2024-01-30T01:44:58;11.30;;;7.60;;
18596;SDS011;9428;50.950;6.912;2024-01-30T01:47:47;13.70;;;8.33;;
18596;SDS011;9428;50.950;6.912;2024-01-30T01:50:37;14.18;;;8.32;;
18596;SDS011;9428;50.950;6.912;2024-01-30T01:53:25;14.40;;;7.88;;
18596;SDS011;9428;50.950;6.912;2024-01-30T01:56:13;12.60;;;9.02;;
18596;SDS011;9428;50.950;6.912;2024-01-30T01:59:04;16.73;;;8.05;;
18596;SDS011;9428;50.950;6.912;2024-01-30T02:01:52;14.00;;;8.20;;
18596;SDS011;9428;50.950;6.912;2024-01-30T02:04:42;14.48;;;8.35;;
18596;SDS011;9428;50.950;6.912;2024-01-30T02:07:29;12.60;;;8.43;;
18596;SDS011;9428;50.950;6.912;2024-01-30T02:10:17;12.00;;;7.85;;
18596;SDS011;9428;50.950;6.912;2024-01-30T02:13:04;17.55;;;8.88;;
18596;SDS011;9428;50.950;6.912;2024-01-30T02:15:53;15.07;;;8.15;;
18596;SDS011;9428;50.950;6.912;2024-01-30T02:18:40;15.20;;;7.95;;
18596;SDS011;9428;50.950;6.912;2024-01-30T02:21:32;13.80;;;8.27;;
18596;SDS011;9428;50.950;6.912;2024-01-30T02:24:19;14.40;;;7.78;;
18596;SDS011;9428;50.950;6.912;2024-01-30T02:27:07;11.75;;;7.95;;
18596;SDS011;9428;50.950;6.912;2024-01-30T02:29:54;14.40;;;8.25;;
18596;SDS011;9428;50.950;6.912;2024-01-30T02:32:42;11.52;;;7.85;;
18596;SDS011;9428;50.950;6.912;2024-01-30T02:35:29;13.55;;;8.20;;
18596;SDS011;9428;50.950;6.912;2024-01-30T02:38:18;14.48;;;8.20;;
18596;SDS011;9428;50.950;6.912;2024-01-30T02:41:05;12.68;;;8.10;;
18596;SDS011;9428;50.950;6.912;2024-01-30T02:43:53;12.68;;;8.57;;
18596;SDS011;9428;50.950;6.912;2024-01-30T02:46:40;11.27;;;7.60;;
18596;SDS011;9428;50.950;6.912;2024-01-30T02:49:28;13.88;;;7.78;;
18596;SDS011;9428;50.950;6.912;2024-01-30T02:52:15;14.55;;;8.07;;
18596;SDS011;9428;50.950;6.912;2024-01-30T02:55:06;12.93;;;7.60;;
18596;SDS011;9428;50.950;6.912;2024-01-30T02:57:54;15.32;;;8.75;;
18596;SDS011;9428;50.950;6.912;2024-01-30T03:00:41;11.60;;;8.52;;
18596;SDS011;9428;50.950;6.912;2024-01-30T03:03:29;9.82;;;7.20;;
18596;SDS011;9428;50.950;6.912;2024-01-30T03:06:16;13.13;;;7.95;;
18596;SDS011;9428;50.950;6.912;2024-01-30T03:09:05;10.95;;;6.68;;
18596;SDS011;9428;50.950;6.912;2024-01-30T03:11:56;12.10;;;7.85;;
18596;SDS011;9428;50.950;6.912;2024-01-30T03:14:46;11.48;;;7.85;;
18596;SDS011;9428;50.950;6.912;2024-01-30T03:17:34;13.30;;;7.63;;
18596;SDS011;9428;50.950;6.912;2024-01-30T03:20:23;12.05;;;7.28;;
18596;SDS011;9428;50.950;6.912;2024-01-30T03:23:14;14.07;;;8.25;;
18596;SDS011;9428;50.950;6.912;2024-01-30T03:26:04;13.32;;;8.48;;
18596;SDS011;9428;50.950;6.912;2024-01-30T03:28:56;13.10;;;7.50;;
18596;SDS011;9428;50.950;6.912;2024-01-30T03:31:43;13.75;;;7.80;;
18596;SDS011;9428;50.950;6.912;2024-01-30T03:34:35;12.60;;;7.47;;
18596;SDS011;9428;50.950;6.912;2024-01-30T03:37:22;9.95;;;7.20;;
18596;SDS011;9428;50.950;6.912;2024-01-30T03:40:10;12.70;;;7.50;;
18596;SDS011;9428;50.950;6.912;2024-01-30T03:42:58;11.75;;;7.10;;
18596;SDS011;9428;50.950;6.912;2024-01-30T03:45:47;13.38;;;8.00;;
18596;SDS011;9428;50.950;6.912;2024-01-30T03:48:34;11.70;;;7.70;;
18596;SDS011;9428;50.950;6.912;2024-01-30T03:51:24;10.32;;;7.88;;
18596;SDS011;9428;50.950;6.912;2024-01-30T03:54:15;13.40;;;7.87;;
18596;SDS011;9428;50.950;6.912;2024-01-30T03:57:03;13.95;;;8.13;;
18596;SDS011;9428;50.950;6.912;2024-01-30T03:59:51;15.07;;;7.90;;
18596;SDS011;9428;50.950;6.912;2024-01-30T04:02:41;13.40;;;7.70;;
18596;SDS011;9428;50.950;6.912;2024-01-30T04:05:29;11.32;;;7.93;;
18596;SDS011;9428;50.950;6.912;2024-01-30T04:08:20;9.85;;;7.22;;
18596;SDS011;9428;50.950;6.912;2024-01-30T04:11:07;12.45;;;7.53;;
18596;SDS011;9428;50.950;6.912;2024-01-30T04:13:55;11.50;;;7.65;;
18596;SDS011;9428;50.950;6.912;2024-01-30T04:16:45;9.90;;;7.27;;
18596;SDS011;9428;50.950;6.912;2024-01-30T04:19:36;12.60;;;7.30;;
18596;SDS011;9428;50.950;6.912;2024-01-30T04:22:27;10.20;;;7.17;;
18596;SDS011;9428;50.950;6.912;2024-01-30T04:25:16;10.75;;;7.78;;
18596;SDS011;9428;50.950;6.912;2024-01-30T04:28:06;12.07;;;7.43;;
18596;SDS011;9428;50.950;6.912;2024-01-30T04:30:53;11.45;;;6.93;;
18596;SDS011;9428;50.950;6.912;2024-01-30T04:33:50;14.03;;;7.10;;
18596;SDS011;9428;50.950;6.912;2024-01-30T04:36:39;12.17;;;7.53;;
18596;SDS011;9428;50.950;6.912;2024-01-30T04:39:26;14.37;;;7.60;;
18596;SDS011;9428;50.950;6.912;2024-01-30T04:42:14;13.63;;;7.80;;
18596;SDS011;9428;50.950;6.912;2024-01-30T04:45:10;11.23;;;7.15;;
18596;SDS011;9428;50.950;6.912;2024-01-30T04:47:57;12.98;;;7.65;;
18596;SDS011;9428;50.950;6.912;2024-01-30T04:50:44;13.98;;;7.72;;
18596;SDS011;9428;50.950;6.912;2024-01-30T04:53:38;12.15;;;7.90;;
18596;SDS011;9428;50.950;6.912;2024-01-30T04:56:25;10.93;;;6.67;;
18596;SDS011;9428;50.950;6.912;2024-01-30T04:59:13;12.57;;;7.53;;
18596;SDS011;9428;50.950;6.912;2024-01-30T05:02:00;15.60;;;8.63;;
18596;SDS011;9428;50.950;6.912;2024-01-30T05:04:47;13.00;;;7.83;;
18596;SDS011;9428;50.950;6.912;2024-01-30T05:07:41;10.85;;;7.63;;
18596;SDS011;9428;50.950;6.912;2024-01-30T05:10:33;12.05;;;7.13;;
18596;SDS011;9428;50.950;6.912;2024-01-30T05:13:20;13.47;;;7.97;;
18596;SDS011;9428;50.950;6.912;2024-01-30T05:16:11;13.63;;;7.80;;
18596;SDS011;9428;50.950;6.912;2024-01-30T05:19:07;12.40;;;7.25;;
18596;SDS011;9428;50.950;6.912;2024-01-30T05:21:57;12.60;;;7.50;;
18596;SDS011;9428;50.950;6.912;2024-01-30T05:24:48;11.88;;;7.60;;
18596;SDS011;9428;50.950;6.912;2024-01-30T05:27:39;12.73;;;7.80;;
18596;SDS011;9428;50.950;6.912;2024-01-30T05:30:26;11.53;;;6.63;;
18596;SDS011;9428;50.950;6.912;2024-01-30T05:33:14;16.08;;;8.00;;
18596;SDS011;9428;50.950;6.912;2024-01-30T05:36:01;12.67;;;7.70;;
18596;SDS011;9428;50.950;6.912;2024-01-30T05:38:49;13.73;;;7.70;;
18596;SDS011;9428;50.950;6.912;2024-01-30T05:41:37;13.45;;;7.97;;
18596;SDS011;9428;50.950;6.912;2024-01-30T05:44:25;10.30;;;7.23;;
18596;SDS011;9428;50.950;6.912;2024-01-30T05:47:13;10.75;;;7.68;;
18596;SDS011;9428;50.950;6.912;2024-01-30T05:50:01;10.67;;;7.80;;
18596;SDS011;9428;50.950;6.912;2024-01-30T05:52:48;11.70;;;7.53;;
18596;SDS011;9428;50.950;6.912;2024-01-30T05:55:36;11.68;;;8.25;;
18596;SDS011;9428;50.950;6.912;2024-01-30T05:58:23;15.15;;;8.20;;
18596;SDS011;9428;50.950;6.912;2024-01-30T06:01:12;14.50;;;7.07;;
18596;SDS011;9428;50.950;6.912;2024-01-30T06:04:00;12.00;;;8.03;;
18596;SDS011;9428;50.950;6.912;2024-01-30T06:06:51;17.85;;;8.38;;
18596;SDS011;9428;50.950;6.912;2024-01-30T06:09:38;15.57;;;8.10;;
18596;SDS011;9428;50.950;6.912;2024-01-30T06:12:26;16.70;;;8.00;;
18596;SDS011;9428;50.950;6.912;2024-01-30T06:15:14;12.95;;;7.43;;
18596;SDS011;9428;50.950;6.912;2024-01-30T06:18:03;13.75;;;7.40;;
18596;SDS011;9428;50.950;6.912;2024-01-30T06:20:51;16.40;;;7.93;;
18596;SDS011;9428;50.950;6.912;2024-01-30T06:23:38;14.10;;;7.90;;
18596;SDS011;9428;50.950;6.912;2024-01-30T06:26:26;11.70;;;7.75;;
18596;SDS011;9428;50.950;6.912;2024-01-30T06:29:13;11.90;;;7.35;;
18596;SDS011;9428;50.950;6.912;2024-01-30T06:32:02;11.82;;;7.55;;
18596;SDS011;9428;50.950;6.912;2024-01-30T06:34:51;16.70;;;8.10;;
18596;SDS011;9428;50.950;6.912;2024-01-30T06:37:38;13.23;;;7.70;;
18596;SDS011;9428;50.950;6.912;2024-01-30T06:40:26;10.70;;;7.63;;
18596;SDS011;9428;50.950;6.912;2024-01-30T06:43:14;13.63;;;7.18;;
18596;SDS011;9428;50.950;6.912;2024-01-30T06:46:03;10.73;;;7.50;;
18596;SDS011;9428;50.950;6.912;2024-01-30T06:48:50;11.15;;;7.80;;
18596;SDS011;9428;50.950;6.912;2024-01-30T06:51:40;14.30;;;8.10;;
18596;SDS011;9428;50.950;6.912;2024-01-30T06:54:27;10.57;;;7.00;;
18596;SDS011;9428;50.950;6.912;2024-01-30T06:57:18;11.02;;;7.50;;
18596;SDS011;9428;50.950;6.912;2024-01-30T07:00:06;12.40;;;8.03;;
18596;SDS011;9428;50.950;6.912;2024-01-30T07:02:54;14.13;;;8.20;;
18596;SDS011;9428;50.950;6.912;2024-01-30T07:05:42;11.43;;;7.57;;
18596;SDS011;9428;50.950;6.912;2024-01-30T07:08:30;13.98;;;7.80;;
18596;SDS011;9428;50.950;6.912;2024-01-30T07:11:18;14.88;;;8.63;;
18596;SDS011;9428;50.950;6.912;2024-01-30T07:14:07;18.60;;;8.40;;
18596;SDS011;9428;50.950;6.912;2024-01-30T07:16:55;17.88;;;9.20;;
18596;SDS011;9428;50.950;6.912;2024-01-30T07:19:43;17.90;;;8.57;;
18596;SDS011;9428;50.950;6.912;2024-01-30T07:22:30;14.90;;;8.90;;
18596;SDS011;9428;50.950;6.912;2024-01-30T07:25:20;12.30;;;7.80;;
18596;SDS011;9428;50.950;6.912;2024-01-30T07:28:12;14.40;;;8.30;;
18596;SDS011;9428;50.950;6.912;2024-01-30T07:31:02;21.38;;;8.68;;
18596;SDS011;9428;50.950;6.912;2024-01-30T07:33:50;19.27;;;8.55;;
18596;SDS011;9428;50.950;6.912;2024-01-30T07:36:38;24.48;;;8.38;;
18596;SDS011;9428;50.950;6.912;2024-01-30T07:39:26;10.57;;;7.37;;
18596;SDS011;9428;50.950;6.912;2024-01-30T07:42:14;19.23;;;8.13;;
18596;SDS011;9428;50.950;6.912;2024-01-30T07:45:03;14.67;;;9.10;;
18596;SDS011;9428;50.950;6.912;2024-01-30T07:47:51;15.83;;;8.63;;
18596;SDS011;9428;50.950;6.912;2024-01-30T07:50:38;19.15;;;8.40;;
18596;SDS011;9428;50.950;6.912;2024-01-30T07:53:26;13.85;;;8.15;;
18596;SDS011;9428;50.950;6.912;2024-01-30T07:56:14;12.60;;;7.63;;
18596;SDS011;9428;50.950;6.912;2024-01-30T07:59:03;13.63;;;7.97;;
18596;SDS011;9428;50.950;6.912;2024-01-30T08:01:50;13.20;;;7.95;;
18596;SDS011;9428;50.950;6.912;2024-01-30T08:04:37;16.60;;;8.73;;
18596;SDS011;9428;50.950;6.912;2024-01-30T08:07:28;14.93;;;7.63;;
18596;SDS011;9428;50.950;6.912;2024-01-30T08:10:17;15.27;;;7.53;;
18596;SDS011;9428;50.950;6.912;2024-01-30T08:13:05;15.90;;;7.73;;
18596;SDS011;9428;50.950;6.912;2024-01-30T08:15:56;11.88;;;7.55;;
18596;SDS011;9428;50.950;6.912;2024-01-30T08:18:44;10.90;;;6.60;;
18596;SDS011;9428;50.950;6.912;2024-01-30T08:21:32;12.73;;;7.72;;
18596;SDS011;9428;50.950;6.912;2024-01-30T08:24:21;11.48;;;7.72;;
18596;SDS011;9428;50.950;6.912;2024-01-30T08:27:09;11.80;;;7.28;;
18596;SDS011;9428;50.950;6.912;2024-01-30T08:29:57;13.23;;;8.65;;
18596;SDS011;9428;50.950;6.912;2024-01-30T08:32:46;17.40;;;8.00;;
18596;SDS011;9428;50.950;6.912;2024-01-30T08:35:34;10.43;;;7.15;;
18596;SDS011;9428;50.950;6.912;2024-01-30T08:38:21;15.18;;;7.07;;
18596;SDS011;9428;50.950;6.912;2024-01-30T08:41:15;12.45;;;7.95;;
18596;SDS011;9428;50.950;6.912;2024-01-30T08:44:02;12.90;;;7.55;;
18596;SDS011;9428;50.950;6.912;2024-01-30T08:46:50;9.43;;;6.93;;
18596;SDS011;9428;50.950;6.912;2024-01-30T08:49:38;14.45;;;9.07;;
18596;SDS011;9428;50.950;6.912;2024-01-30T08:52:26;13.82;;;7.80;;
18596;SDS011;9428;50.950;6.912;2024-01-30T08:55:14;12.70;;;7.55;;
18596;SDS011;9428;50.950;6.912;2024-01-30T08:58:03;15.35;;;7.13;;
18596;SDS011;9428;50.950;6.912;2024-01-30T09:00:51;15.18;;;7.35;;
18596;SDS011;9428;50.950;6.912;2024-01-30T09:03:40;14.88;;;8.60;;
18596;SDS011;9428;50.950;6.912;2024-01-30T09:06:30;14.23;;;7.63;;
18596;SDS011;9428;50.950;6.912;2024-01-30T09:09:17;14.80;;;7.47;;
18596;SDS011;9428;50.950;6.912;2024-01-30T09:12:05;18.63;;;7.97;;
18596;SDS011;9428;50.950;6.912;2024-01-30T09:14:54;18.40;;;8.60;;
18596;SDS011;9428;50.950;6.912;2024-01-30T09:17:42;16.95;;;8.70;;
18596;SDS011;9428;50.950;6.912;2024-01-30T09:20:29;14.40;;;9.13;;
18596;SDS011;9428;50.950;6.912;2024-01-30T09:23:18;15.65;;;8.32;;
18596;SDS011;9428;50.950;6.912;2024-01-30T09:26:06;9.32;;;7.85;;
18596;SDS011;9428;50.950;6.912;2024-01-30T09:28:53;17.67;;;8.77;;
18596;SDS011;9428;50.950;6.912;2024-01-30T09:31:42;12.05;;;8.20;;
18596;SDS011;9428;50.950;6.912;2024-01-30T09:34:33;16.42;;;8.13;;
18596;SDS011;9428;50.950;6.912;2024-01-30T09:37:20;15.13;;;8.52;;
18596;SDS011;9428;50.950;6.912;2024-01-30T09:40:09;23.25;;;9.55;;
18596;SDS011;9428;50.950;6.912;2024-01-30T09:42:57;12.48;;;8.57;;
18596;SDS011;9428;50.950;6.912;2024-01-30T09:45:46;14.00;;;7.63;;
18596;SDS011;9428;50.950;6.912;2024-01-30T09:48:34;12.00;;;8.18;;
18596;SDS011;9428;50.950;6.912;2024-01-30T09:51:22;23.08;;;9.00;;
18596;SDS011;9428;50.950;6.912;2024-01-30T09:54:10;29.50;;;9.93;;
18596;SDS011;9428;50.950;6.912;2024-01-30T09:57:01;17.08;;;8.93;;
18596;SDS011;9428;50.950;6.912;2024-01-30T09:59:49;20.95;;;8.77;;
18596;SDS011;9428;50.950;6.912;2024-01-30T10:02:39;20.25;;;8.52;;
18596;SDS011;9428;50.950;6.912;2024-01-30T10:05:27;13.07;;;8.40;;
18596;SDS011;9428;50.950;6.912;2024-01-30T10:08:19;18.27;;;8.88;;
18596;SDS011;9428;50.950;6.912;2024-01-30T10:11:06;15.48;;;8.63;;
18596;SDS011;9428;50.950;6.912;2024-01-30T10:13:55;14.20;;;8.88;;
18596;SDS011;9428;50.950;6.912;2024-01-30T10:16:43;28.55;;;10.18;;
18596;SDS011;9428;50.950;6.912;2024-01-30T10:22:34;14.85;;;8.38;;
18596;SDS011;9428;50.950;6.912;2024-01-30T10:25:22;11.77;;;7.50;;
18596;SDS011;9428;50.950;6.912;2024-01-30T10:28:09;15.73;;;9.10;;
18596;SDS011;9428;50.950;6.912;2024-01-30T10:30:58;26.50;;;9.27;;
18596;SDS011;9428;50.950;6.912;2024-01-30T10:33:46;15.40;;;8.20;;
18596;SDS011;9428;50.950;6.912;2024-01-30T10:36:33;15.93;;;8.82;;
18596;SDS011;9428;50.950;6.912;2024-01-30T10:39:28;13.50;;;8.18;;
18596;SDS011;9428;50.950;6.912;2024-01-30T10:42:17;17.63;;;9.85;;
18596;SDS011;9428;50.950;6.912;2024-01-30T10:45:06;16.60;;;8.82;;
18596;SDS011;9428;50.950;6.912;2024-01-30T10:47:56;13.45;;;7.95;;
18596;SDS011;9428;50.950;6.912;2024-01-30T10:50:46;17.88;;;9.23;;
18596;SDS011;9428;50.950;6.912;2024-01-30T10:53:34;15.00;;;8.52;;
18596;SDS011;9428;50.950;6.912;2024-01-30T10:56:25;14.30;;;8.00;;
18596;SDS011;9428;50.950;6.912;2024-01-30T10:59:14;16.35;;;9.20;;
18596;SDS011;9428;50.950;6.912;2024-01-30T11:02:02;11.18;;;8.07;;
18596;SDS011;9428;50.950;6.912;2024-01-30T11:04:57;16.90;;;9.43;;
18596;SDS011;9428;50.950;6.912;2024-01-30T11:07:48;14.30;;;8.43;;
18596;SDS011;9428;50.950;6.912;2024-01-30T11:10:43;12.05;;;8.00;;
18596;SDS011;9428;50.950;6.912;2024-01-30T11:13:31;34.08;;;9.80;;
18596;SDS011;9428;50.950;6.912;2024-01-30T11:16:19;30.33;;;9.88;;
18596;SDS011;9428;50.950;6.912;2024-01-30T11:19:11;15.52;;;7.43;;
18596;SDS011;9428;50.950;6.912;2024-01-30T11:22:07;14.60;;;7.72;;
18596;SDS011;9428;50.950;6.912;2024-01-30T11:24:55;15.82;;;8.57;;
18596;SDS011;9428;50.950;6.912;2024-01-30T11:27:43;21.45;;;8.40;;
18596;SDS011;9428;50.950;6.912;2024-01-30T11:30:31;16.50;;;9.63;;
18596;SDS011;9428;50.950;6.912;2024-01-30T11:33:27;12.43;;;7.45;;
18596;SDS011;9428;50.950;6.912;2024-01-30T11:36:16;15.85;;;9.45;;
18596;SDS011;9428;50.950;6.912;2024-01-30T11:39:09;13.93;;;7.60;;
18596;SDS011;9428;50.950;6.912;2024-01-30T11:41:58;24.00;;;10.05;;
18596;SDS011;9428;50.950;6.912;2024-01-30T11:44:46;18.23;;;8.82;;
18596;SDS011;9428;50.950;6.912;2024-01-30T11:47:34;15.48;;;9.27;;
18596;SDS011;9428;50.950;6.912;2024-01-30T11:50:23;15.80;;;8.75;;
18596;SDS011;9428;50.950;6.912;2024-01-30T11:53:11;13.05;;;8.10;;
18596;SDS011;9428;50.950;6.912;2024-01-30T11:56:02;12.80;;;7.88;;
18596;SDS011;9428;50.950;6.912;2024-01-30T11:58:52;20.02;;;8.40;;
18596;SDS011;9428;50.950;6.912;2024-01-30T12:01:40;15.48;;;7.38;;
18596;SDS011;9428;50.950;6.912;2024-01-30T12:04:28;11.40;;;7.63;;
18596;SDS011;9428;50.950;6.912;2024-01-30T12:07:16;14.90;;;8.18;;
18596;SDS011;9428;50.950;6.912;2024-01-30T12:10:04;14.88;;;8.02;;
18596;SDS011;9428;50.950;6.912;2024-01-30T12:12:54;16.60;;;7.47;;
18596;SDS011;9428;50.950;6.912;2024-01-30T12:15:44;11.95;;;7.40;;
18596;SDS011;9428;50.950;6.912;2024-01-30T12:18:32;16.17;;;8.05;;
18596;SDS011;9428;50.950;6.912;2024-01-30T12:21:19;16.55;;;7.72;;
18596;SDS011;9428;50.950;6.912;2024-01-30T12:24:07;16.70;;;8.02;;
18596;SDS011;9428;50.950;6.912;2024-01-30T12:26:56;13.95;;;8.30;;
18596;SDS011;9428;50.950;6.912;2024-01-30T12:29:45;13.77;;;8.75;;
18596;SDS011;9428;50.950;6.912;2024-01-30T12:32:34;16.60;;;8.35;;
18596;SDS011;9428;50.950;6.912;2024-01-30T12:35:25;13.93;;;7.78;;
18596;SDS011;9428;50.950;6.912;2024-01-30T12:38:13;15.85;;;8.52;;
18596;SDS011;9428;50.950;6.912;2024-01-30T12:41:00;15.73;;;8.60;;
18596;SDS011;9428;50.950;6.912;2024-01-30T12:43:48;18.63;;;10.02;;
18596;SDS011;9428;50.950;6.912;2024-01-30T12:46:37;14.00;;;9.15;;
18596;SDS011;9428;50.950;6.912;2024-01-30T12:49:27;17.13;;;9.93;;
18596;SDS011;9428;50.950;6.912;2024-01-30T12:52:16;17.23;;;9.20;;
18596;SDS011;9428;50.950;6.912;2024-01-30T12:55:04;15.48;;;9.00;;
18596;SDS011;9428;50.950;6.912;2024-01-30T12:57:52;13.75;;;8.07;;
18596;SDS011;9428;50.950;6.912;2024-01-30T13:00:39;13.88;;;7.90;;
18596;SDS011;9428;50.950;6.912;2024-01-30T13:03:32;11.98;;;7.28;;
18596;SDS011;9428;50.950;6.912;2024-01-30T13:06:19;17.10;;;8.02;;
18596;SDS011;9428;50.950;6.912;2024-01-30T13:09:06;16.88;;;7.82;;
18596;SDS011;9428;50.950;6.912;2024-01-30T13:11:54;16.08;;;8.05;;
18596;SDS011;9428;50.950;6.912;2024-01-30T13:14:42;18.48;;;7.78;;
18596;SDS011;9428;50.950;6.912;2024-01-30T13:17:29;15.23;;;6.97;;
18596;SDS011;9428;50.950;6.912;2024-01-30T13:20:18;10.30;;;6.25;;
18596;SDS011;9428;50.950;6.912;2024-01-30T13:23:06;13.57;;;6.43;;
18596;SDS011;9428;50.950;6.912;2024-01-30T13:25:54;11.27;;;5.60;;
18596;SDS011;9428;50.950;6.912;2024-01-30T13:28:44;11.57;;;5.65;;
18596;SDS011;9428;50.950;6.912;2024-01-30T13:31:31;10.73;;;5.40;;
18596;SDS011;9428;50.950;6.912;2024-01-30T13:34:21;8.60;;;5.10;;
18596;SDS011;9428;50.950;6.912;2024-01-30T13:37:10;15.88;;;5.38;;
18596;SDS011;9428;50.950;6.912;2024-01-30T13:39:57;10.38;;;4.28;;
18596;SDS011;9428;50.950;6.912;2024-01-30T13:42:45;11.25;;;4.65;;
18596;SDS011;9428;50.950;6.912;2024-01-30T13:45:33;12.35;;;4.95;;
18596;SDS011;9428;50.950;6.912;2024-01-30T13:48:20;11.40;;;4.68;;
18596;SDS011;9428;50.950;6.912;2024-01-30T13:51:08;9.77;;;4.65;;
18596;SDS011;9428;50.950;6.912;2024-01-30T13:53:57;9.18;;;4.22;;
18596;SDS011;9428;50.950;6.912;2024-01-30T13:56:45;10.55;;;4.70;;
18596;SDS011;9428;50.950;6.912;2024-01-30T13:59:32;10.40;;;4.97;;
18596;SDS011;9428;50.950;6.912;2024-01-30T14:02:20;6.35;;;4.30;;
18596;SDS011;9428;50.950;6.912;2024-01-30T14:05:08;9.35;;;4.47;;
18596;SDS011;9428;50.950;6.912;2024-01-30T14:07:55;10.20;;;4.50;;
18596;SDS011;9428;50.950;6.912;2024-01-30T14:10:45;9.65;;;4.72;;
18596;SDS011;9428;50.950;6.912;2024-01-30T14:13:33;8.05;;;4.65;;
18596;SDS011;9428;50.950;6.912;2024-01-30T14:16:20;9.48;;;4.90;;
18596;SDS011;9428;50.950;6.912;2024-01-30T14:19:07;8.95;;;4.80;;
18596;SDS011;9428;50.950;6.912;2024-01-30T14:21:55;9.40;;;5.15;;
18596;SDS011;9428;50.950;6.912;2024-01-30T14:24:42;8.73;;;4.97;;
18596;SDS011;9428;50.950;6.912;2024-01-30T14:27:31;8.00;;;5.15;;
18596;SDS011;9428;50.950;6.912;2024-01-30T14:30:19;8.10;;;4.80;;
18596;SDS011;9428;50.950;6.912;2024-01-30T14:33:06;7.90;;;5.35;;
18596;SDS011;9428;50.950;6.912;2024-01-30T14:35:54;8.27;;;4.75;;
18596;SDS011;9428;50.950;6.912;2024-01-30T14:38:41;9.07;;;5.05;;
18596;SDS011;9428;50.950;6.912;2024-01-30T14:41:30;9.57;;;5.68;;
18596;SDS011;9428;50.950;6.912;2024-01-30T14:44:19;8.02;;;4.95;;
18596;SDS011;9428;50.950;6.912;2024-01-30T14:47:06;8.98;;;5.28;;
18596;SDS011;9428;50.950;6.912;2024-01-30T14:49:54;7.38;;;5.25;;
18596;SDS011;9428;50.950;6.912;2024-01-30T14:52:41;14.60;;;5.40;;
18596;SDS011;9428;50.950;6.912;2024-01-30T14:55:30;10.68;;;5.22;;
18596;SDS011;9428;50.950;6.912;2024-01-30T14:58:17;9.10;;;5.28;;
18596;SDS011;9428;50.950;6.912;2024-01-30T15:01:07;10.05;;;5.32;;
18596;SDS011;9428;50.950;6.912;2024-01-30T15:03:55;8.25;;;5.50;;
18596;SDS011;9428;50.950;6.912;2024-01-30T15:06:45;10.35;;;6.10;;
18596;SDS011;9428;50.950;6.912;2024-01-30T15:09:34;9.50;;;5.75;;
18596;SDS011;9428;50.950;6.912;2024-01-30T15:12:21;12.45;;;6.50;;
18596;SDS011;9428;50.950;6.912;2024-01-30T15:15:12;17.48;;;7.00;;
18596;SDS011;9428;50.950;6.912;2024-01-30T15:18:00;14.15;;;6.20;;
18596;SDS011;9428;50.950;6.912;2024-01-30T15:20:49;9.43;;;6.10;;
18596;SDS011;9428;50.950;6.912;2024-01-30T15:23:37;8.95;;;6.60;;
18596;SDS011;9428;50.950;6.912;2024-01-30T15:26:24;10.18;;;5.28;;
18596;SDS011;9428;50.950;6.912;2024-01-30T15:29:14;8.70;;;5.68;;
18596;SDS011;9428;50.950;6.912;2024-01-30T15:32:01;14.80;;;6.07;;
18596;SDS011;9428;50.950;6.912;2024-01-30T15:34:52;10.35;;;6.00;;
18596;SDS011;9428;50.950;6.912;2024-01-30T15:37:42;25.80;;;6.18;;
18596;SDS011;9428;50.950;6.912;2024-01-30T15:40:29;9.90;;;5.97;;
18596;SDS011;9428;50.950;6.912;2024-01-30T15:43:17;10.80;;;6.00;;
18596;SDS011;9428;50.950;6.912;2024-01-30T15:46:08;11.02;;;5.95;;
18596;SDS011;9428;50.950;6.912;2024-01-30T15:48:55;15.48;;;7.88;;
18596;SDS011;9428;50.950;6.912;2024-01-30T15:51:44;11.25;;;6.75;;
18596;SDS011;9428;50.950;6.912;2024-01-30T15:54:32;11.65;;;6.00;;
18596;SDS011;9428;50.950;6.912;2024-01-30T15:57:20;14.07;;;6.35;;
18596;SDS011;9428;50.950;6.912;2024-01-30T16:00:08;11.75;;;6.72;;
18596;SDS011;9428;50.950;6.912;2024-01-30T16:02:58;11.55;;;6.88;;
18596;SDS011;9428;50.950;6.912;2024-01-30T16:05:45;16.80;;;7.82;;
18596;SDS011;9428;50.950;6.912;2024-01-30T16:08:34;12.93;;;7.93;;
18596;SDS011;9428;50.950;6.912;2024-01-30T16:11:21;16.10;;;6.78;;
18596;SDS011;9428;50.950;6.912;2024-01-30T16:14:10;9.80;;;6.65;;
18596;SDS011;9428;50.950;6.912;2024-01-30T16:16:58;15.18;;;6.50;;
18596;SDS011;9428;50.950;6.912;2024-01-30T16:19:45;9.15;;;5.93;;
18596;SDS011;9428;50.950;6.912;2024-01-30T16:22:35;11.90;;;5.50;;
18596;SDS011;9428;50.950;6.912;2024-01-30T16:25:24;11.30;;;5.93;;
18596;SDS011;9428;50.950;6.912;2024-01-30T16:28:11;10.38;;;5.90;;
18596;SDS011;9428;50.950;6.912;2024-01-30T16:30:59;10.70;;;4.57;;
18596;SDS011;9428;50.950;6.912;2024-01-30T16:33:47;9.85;;;4.78;;
18596;SDS011;9428;50.950;6.912;2024-01-30T16:36:35;8.48;;;4.35;;
18596;SDS011;9428;50.950;6.912;2024-01-30T16:39:22;8.95;;;3.80;;
18596;SDS011;9428;50.950;6.912;2024-01-30T16:42:11;3.58;;;2.35;;
18596;SDS011;9428;50.950;6.912;2024-01-30T16:44:58;3.55;;;2.33;;
18596;SDS011;9428;50.950;6.912;2024-01-30T16:47:46;4.32;;;2.33;;
18596;SDS011;9428;50.950;6.912;2024-01-30T16:50:33;6.13;;;2.58;;
18596;SDS011;9428;50.950;6.912;2024-01-30T16:53:21;5.28;;;2.25;;
18596;SDS011;9428;50.950;6.912;2024-01-30T16:56:09;2.22;;;1.30;;
18596;SDS011;9428;50.950;6.912;2024-01-30T16:58:57;4.63;;;1.95;;
18596;SDS011;9428;50.950;6.912;2024-01-30T17:01:45;4.40;;;2.15;;